sensor_id;sensor_type;location;lat;lon;timestamp;temperature;humidity
71514;DHT22;59335;46.652;21.272;2022-07-29T00:02:50;30.04;36.58
71514;DHT22;59335;46.652;21.272;2022-07-29T00:05:53;30.03;36.65
71514;DHT22;59335;46.652;21.272;2022-07-29T00:08:59;30.03;36.71
71514;DHT22;59335;46.652;21.272;2022-07-29T00:12:02;30.00;36.78
71514;DHT22;59335;46.652;21.272;2022-07-29T00:15:05;30.00;36.90
71514;DHT22;59335;46.652;21.272;2022-07-29T00:18:08;30.01;36.87
71514;DHT22;59335;46.652;21.272;2022-07-29T00:21:10;30.00;37.01
71514;DHT22;59335;46.652;21.272;2022-07-29T00:24:15;29.99;37.06
71514;DHT22;59335;46.652;21.272;2022-07-29T00:27:18;30.00;37.05
71514;DHT22;59335;46.652;21.272;2022-07-29T00:30:21;29.99;37.05
71514;DHT22;59335;46.652;21.272;2022-07-29T00:33:23;30.03;37.03
71514;DHT22;59335;46.652;21.272;2022-07-29T00:36:26;30.00;37.01
71514;DHT22;59335;46.652;21.272;2022-07-29T00:39:29;29.96;37.08
71514;DHT22;59335;46.652;21.272;2022-07-29T00:42:41;30.01;37.05
71514;DHT22;59335;46.652;21.272;2022-07-29T00:45:44;29.99;37.07
71514;DHT22;59335;46.652;21.272;2022-07-29T00:48:47;29.99;37.12
71514;DHT22;59335;46.652;21.272;2022-07-29T00:51:50;29.96;37.11
71514;DHT22;59335;46.652;21.272;2022-07-29T00:54:53;29.96;37.11
71514;DHT22;59335;46.652;21.272;2022-07-29T00:57:56;29.99;37.13
71514;DHT22;59335;46.652;21.272;2022-07-29T01:01:00;29.96;37.12
71514;DHT22;59335;46.652;21.272;2022-07-29T01:04:03;29.99;37.15
71514;DHT22;59335;46.652;21.272;2022-07-29T01:07:07;29.99;37.15
71514;DHT22;59335;46.652;21.272;2022-07-29T01:10:12;29.97;37.12
71514;DHT22;59335;46.652;21.272;2022-07-29T01:13:16;29.99;37.15
71514;DHT22;59335;46.652;21.272;2022-07-29T01:16:30;29.97;37.18
71514;DHT22;59335;46.652;21.272;2022-07-29T01:19:58;29.94;37.28
71514;DHT22;59335;46.652;21.272;2022-07-29T01:30:10;29.94;37.26
71514;DHT22;59335;46.652;21.272;2022-07-29T01:33:17;29.96;37.25
71514;DHT22;59335;46.652;21.272;2022-07-29T01:36:43;29.94;37.30
71514;DHT22;59335;46.652;21.272;2022-07-29T01:39:56;29.96;37.36
71514;DHT22;59335;46.652;21.272;2022-07-29T01:43:05;29.94;37.46
71514;DHT22;59335;46.652;21.272;2022-07-29T01:46:13;29.90;37.50
71514;DHT22;59335;46.652;21.272;2022-07-29T01:49:21;29.96;37.47
71514;DHT22;59335;46.652;21.272;2022-07-29T01:52:52;29.94;37.56
71514;DHT22;59335;46.652;21.272;2022-07-29T01:55:57;29.94;37.62
71514;DHT22;59335;46.652;21.272;2022-07-29T01:59:02;29.93;37.75
71514;DHT22;59335;46.652;21.272;2022-07-29T02:02:08;29.91;37.81
71514;DHT22;59335;46.652;21.272;2022-07-29T02:05:15;29.93;37.76
71514;DHT22;59335;46.652;21.272;2022-07-29T02:08:19;29.93;37.84
71514;DHT22;59335;46.652;21.272;2022-07-29T02:11:22;29.93;37.85
71514;DHT22;59335;46.652;21.272;2022-07-29T02:14:26;29.90;37.90
71514;DHT22;59335;46.652;21.272;2022-07-29T02:17:40;29.93;37.87
71514;DHT22;59335;46.652;21.272;2022-07-29T02:20:47;29.90;37.91
71514;DHT22;59335;46.652;21.272;2022-07-29T02:23:52;29.91;37.94
71514;DHT22;59335;46.652;21.272;2022-07-29T02:26:58;29.90;37.96
71514;DHT22;59335;46.652;21.272;2022-07-29T02:30:04;29.90;38.04
71514;DHT22;59335;46.652;21.272;2022-07-29T02:33:10;29.91;38.03
71514;DHT22;59335;46.652;21.272;2022-07-29T02:36:15;29.89;38.05
71514;DHT22;59335;46.652;21.272;2022-07-29T02:39:19;29.90;38.06
71514;DHT22;59335;46.652;21.272;2022-07-29T02:42:23;29.90;38.07
71514;DHT22;59335;46.652;21.272;2022-07-29T02:45:29;29.90;38.07
71514;DHT22;59335;46.652;21.272;2022-07-29T02:48:38;29.89;38.10
71514;DHT22;59335;46.652;21.272;2022-07-29T02:51:46;29.91;38.12
71514;DHT22;59335;46.652;21.272;2022-07-29T02:55:02;29.89;38.15
71514;DHT22;59335;46.652;21.272;2022-07-29T02:58:32;29.89;38.20
71514;DHT22;59335;46.652;21.272;2022-07-29T03:01:39;29.89;38.30
71514;DHT22;59335;46.652;21.272;2022-07-29T03:15:46;30.10;37.39
71514;DHT22;59335;46.652;21.272;2022-07-29T03:18:50;30.11;37.26
71514;DHT22;59335;46.652;21.272;2022-07-29T03:21:56;30.13;37.19
71514;DHT22;59335;46.652;21.272;2022-07-29T03:25:07;30.14;37.19
71514;DHT22;59335;46.652;21.272;2022-07-29T03:28:10;30.18;37.10
71514;DHT22;59335;46.652;21.272;2022-07-29T03:31:12;30.18;37.08
71514;DHT22;59335;46.652;21.272;2022-07-29T03:34:15;30.14;37.18
71514;DHT22;59335;46.652;21.272;2022-07-29T03:37:18;30.16;37.11
71514;DHT22;59335;46.652;21.272;2022-07-29T03:40:28;30.16;37.11
71514;DHT22;59335;46.652;21.272;2022-07-29T03:43:36;30.17;37.05
71514;DHT22;59335;46.652;21.272;2022-07-29T03:46:51;30.17;37.09
71514;DHT22;59335;46.652;21.272;2022-07-29T03:50:04;30.17;37.10
71514;DHT22;59335;46.652;21.272;2022-07-29T03:53:12;30.17;37.10
71514;DHT22;59335;46.652;21.272;2022-07-29T03:56:16;30.18;37.07
71514;DHT22;59335;46.652;21.272;2022-07-29T03:59:23;30.14;37.04
71514;DHT22;59335;46.652;21.272;2022-07-29T04:02:26;30.17;37.05
71514;DHT22;59335;46.652;21.272;2022-07-29T04:05:32;30.14;37.07
71514;DHT22;59335;46.652;21.272;2022-07-29T04:08:34;30.16;37.06
71514;DHT22;59335;46.652;21.272;2022-07-29T04:11:41;30.16;37.07
71514;DHT22;59335;46.652;21.272;2022-07-29T04:15:04;30.18;37.05
71514;DHT22;59335;46.652;21.272;2022-07-29T04:18:07;30.18;37.00
71514;DHT22;59335;46.652;21.272;2022-07-29T04:21:10;30.17;37.07
71514;DHT22;59335;46.652;21.272;2022-07-29T04:24:12;30.17;37.10
71514;DHT22;59335;46.652;21.272;2022-07-29T04:27:16;30.18;37.07
71514;DHT22;59335;46.652;21.272;2022-07-29T04:30:19;30.18;37.04
71514;DHT22;59335;46.652;21.272;2022-07-29T04:33:21;30.18;37.04
71514;DHT22;59335;46.652;21.272;2022-07-29T04:36:26;30.17;37.10
71514;DHT22;59335;46.652;21.272;2022-07-29T04:39:31;30.17;37.13
71514;DHT22;59335;46.652;21.272;2022-07-29T04:42:33;30.18;37.14
71514;DHT22;59335;46.652;21.272;2022-07-29T04:45:47;30.20;37.16
71514;DHT22;59335;46.652;21.272;2022-07-29T04:48:50;30.18;37.14
71514;DHT22;59335;46.652;21.272;2022-07-29T04:51:53;30.20;37.13
71514;DHT22;59335;46.652;21.272;2022-07-29T04:54:55;30.21;37.08
71514;DHT22;59335;46.652;21.272;2022-07-29T04:57:58;30.20;37.14
71514;DHT22;59335;46.652;21.272;2022-07-29T05:01:03;30.18;37.16
71514;DHT22;59335;46.652;21.272;2022-07-29T05:04:06;30.23;37.12
71514;DHT22;59335;46.652;21.272;2022-07-29T05:07:08;30.21;37.12
71514;DHT22;59335;46.652;21.272;2022-07-29T05:10:11;30.23;37.16
71514;DHT22;59335;46.652;21.272;2022-07-29T05:13:14;30.21;37.13
71514;DHT22;59335;46.652;21.272;2022-07-29T05:16:16;30.23;37.19
71514;DHT22;59335;46.652;21.272;2022-07-29T05:19:19;30.18;37.70
71514;DHT22;59335;46.652;21.272;2022-07-29T05:22:21;30.18;38.16
71514;DHT22;59335;46.652;21.272;2022-07-29T05:25:25;30.18;38.43
71514;DHT22;59335;46.652;21.272;2022-07-29T05:28:45;30.18;39.11
71514;DHT22;59335;46.652;21.272;2022-07-29T05:31:48;30.17;39.41
71514;DHT22;59335;46.652;21.272;2022-07-29T05:34:51;30.16;40.11
71514;DHT22;59335;46.652;21.272;2022-07-29T05:37:53;30.16;40.11
71514;DHT22;59335;46.652;21.272;2022-07-29T05:40:57;30.16;40.54
71514;DHT22;59335;46.652;21.272;2022-07-29T05:44:00;30.17;40.80
71514;DHT22;59335;46.652;21.272;2022-07-29T05:47:03;30.16;41.05
71514;DHT22;59335;46.652;21.272;2022-07-29T05:50:06;30.17;41.20
71514;DHT22;59335;46.652;21.272;2022-07-29T05:53:09;30.14;41.50
71514;DHT22;59335;46.652;21.272;2022-07-29T05:56:21;30.16;41.56
71514;DHT22;59335;46.652;21.272;2022-07-29T05:59:23;30.18;41.80
71514;DHT22;59335;46.652;21.272;2022-07-29T06:02:31;30.20;41.83
71514;DHT22;59335;46.652;21.272;2022-07-29T06:05:34;30.20;42.06
71514;DHT22;59335;46.652;21.272;2022-07-29T06:08:37;30.21;42.34
71514;DHT22;59335;46.652;21.272;2022-07-29T06:11:40;30.21;42.51
71514;DHT22;59335;46.652;21.272;2022-07-29T06:14:43;30.20;42.66
71514;DHT22;59335;46.652;21.272;2022-07-29T06:17:46;30.24;42.59
71514;DHT22;59335;46.652;21.272;2022-07-29T06:21:07;30.20;42.61
71514;DHT22;59335;46.652;21.272;2022-07-29T06:24:12;30.23;42.79
71514;DHT22;59335;46.652;21.272;2022-07-29T06:27:15;30.23;42.93
71514;DHT22;59335;46.652;21.272;2022-07-29T06:30:18;30.25;42.98
71514;DHT22;59335;46.652;21.272;2022-07-29T06:33:21;30.24;43.04
71514;DHT22;59335;46.652;21.272;2022-07-29T06:36:24;30.23;43.21
71514;DHT22;59335;46.652;21.272;2022-07-29T06:39:26;30.24;43.49
71514;DHT22;59335;46.652;21.272;2022-07-29T06:42:30;30.24;43.42
71514;DHT22;59335;46.652;21.272;2022-07-29T06:45:35;30.25;43.48
71514;DHT22;59335;46.652;21.272;2022-07-29T06:48:38;30.24;43.77
71514;DHT22;59335;46.652;21.272;2022-07-29T06:51:41;30.25;43.80
71514;DHT22;59335;46.652;21.272;2022-07-29T06:54:44;30.25;43.87
71514;DHT22;59335;46.652;21.272;2022-07-29T06:57:50;30.28;43.90
71514;DHT22;59335;46.652;21.272;2022-07-29T07:00:53;30.25;43.98
71514;DHT22;59335;46.652;21.272;2022-07-29T07:03:56;30.25;44.14
71514;DHT22;59335;46.652;21.272;2022-07-29T07:07:00;30.23;44.20
71514;DHT22;59335;46.652;21.272;2022-07-29T07:10:03;30.27;44.37
71514;DHT22;59335;46.652;21.272;2022-07-29T07:13:06;30.25;44.27
71514;DHT22;59335;46.652;21.272;2022-07-29T07:16:09;30.28;44.30
71514;DHT22;59335;46.652;21.272;2022-07-29T07:19:11;30.28;44.25
71514;DHT22;59335;46.652;21.272;2022-07-29T07:22:15;30.27;44.21
71514;DHT22;59335;46.652;21.272;2022-07-29T07:25:18;30.31;44.19
71514;DHT22;59335;46.652;21.272;2022-07-29T07:28:21;30.29;44.13
71514;DHT22;59335;46.652;21.272;2022-07-29T07:31:26;30.31;44.07
71514;DHT22;59335;46.652;21.272;2022-07-29T07:34:29;30.32;44.03
71514;DHT22;59335;46.652;21.272;2022-07-29T07:37:32;30.32;43.71
71514;DHT22;59335;46.652;21.272;2022-07-29T07:40:35;30.29;43.61
71514;DHT22;59335;46.652;21.272;2022-07-29T07:43:37;30.32;43.44
71514;DHT22;59335;46.652;21.272;2022-07-29T07:46:40;30.34;43.44
71514;DHT22;59335;46.652;21.272;2022-07-29T07:49:43;30.35;43.50
71514;DHT22;59335;46.652;21.272;2022-07-29T07:52:48;30.35;43.44
71514;DHT22;59335;46.652;21.272;2022-07-29T07:55:51;30.35;43.32
71514;DHT22;59335;46.652;21.272;2022-07-29T07:59:11;30.37;43.48
71514;DHT22;59335;46.652;21.272;2022-07-29T08:02:14;30.38;43.47
71514;DHT22;59335;46.652;21.272;2022-07-29T08:05:17;30.37;43.31
71514;DHT22;59335;46.652;21.272;2022-07-29T08:08:20;30.37;43.31
71514;DHT22;59335;46.652;21.272;2022-07-29T08:11:23;30.38;43.26
71514;DHT22;59335;46.652;21.272;2022-07-29T08:14:26;30.38;43.17
71514;DHT22;59335;46.652;21.272;2022-07-29T08:17:28;30.38;43.20
71514;DHT22;59335;46.652;21.272;2022-07-29T08:20:36;30.38;43.15
71514;DHT22;59335;46.652;21.272;2022-07-29T08:23:41;30.39;43.09
71514;DHT22;59335;46.652;21.272;2022-07-29T08:27:04;30.42;43.07
71514;DHT22;59335;46.652;21.272;2022-07-29T08:30:26;30.42;43.02
71514;DHT22;59335;46.652;21.272;2022-07-29T08:33:29;30.41;43.06
71514;DHT22;59335;46.652;21.272;2022-07-29T08:36:33;30.42;42.98
71514;DHT22;59335;46.652;21.272;2022-07-29T08:39:36;30.44;42.92
71514;DHT22;59335;46.652;21.272;2022-07-29T08:42:38;30.47;42.84
71514;DHT22;59335;46.652;21.272;2022-07-29T08:45:46;30.45;42.72
71514;DHT22;59335;46.652;21.272;2022-07-29T08:48:50;30.47;42.78
71514;DHT22;59335;46.652;21.272;2022-07-29T08:51:53;30.47;42.78
71514;DHT22;59335;46.652;21.272;2022-07-29T08:54:56;30.51;42.71
71514;DHT22;59335;46.652;21.272;2022-07-29T08:58:00;30.51;42.71
71514;DHT22;59335;46.652;21.272;2022-07-29T09:01:03;30.49;42.58
71514;DHT22;59335;46.652;21.272;2022-07-29T09:04:11;30.51;42.49
71514;DHT22;59335;46.652;21.272;2022-07-29T09:07:16;30.52;42.47
71514;DHT22;59335;46.652;21.272;2022-07-29T09:10:19;30.51;42.44
71514;DHT22;59335;46.652;21.272;2022-07-29T09:13:22;30.55;42.43
71514;DHT22;59335;46.652;21.272;2022-07-29T09:16:25;30.54;42.37
71514;DHT22;59335;46.652;21.272;2022-07-29T09:19:48;30.54;42.39
71514;DHT22;59335;46.652;21.272;2022-07-29T09:22:52;30.54;42.33
71514;DHT22;59335;46.652;21.272;2022-07-29T09:26:05;30.55;42.29
71514;DHT22;59335;46.652;21.272;2022-07-29T09:29:13;30.55;42.14
71514;DHT22;59335;46.652;21.272;2022-07-29T09:32:16;30.56;42.13
71514;DHT22;59335;46.652;21.272;2022-07-29T09:35:21;30.58;42.10
71514;DHT22;59335;46.652;21.272;2022-07-29T09:38:24;30.58;42.11
71514;DHT22;59335;46.652;21.272;2022-07-29T09:41:27;30.55;42.07
71514;DHT22;59335;46.652;21.272;2022-07-29T09:44:46;30.58;42.05
71514;DHT22;59335;46.652;21.272;2022-07-29T09:47:50;30.58;41.99
71514;DHT22;59335;46.652;21.272;2022-07-29T09:50:52;30.59;41.98
71514;DHT22;59335;46.652;21.272;2022-07-29T09:53:56;30.61;41.88
71514;DHT22;59335;46.652;21.272;2022-07-29T09:56:58;30.59;41.84
71514;DHT22;59335;46.652;21.272;2022-07-29T10:00:20;30.59;41.75
71514;DHT22;59335;46.652;21.272;2022-07-29T10:03:25;30.59;41.71
71514;DHT22;59335;46.652;21.272;2022-07-29T10:06:28;30.59;41.75
71514;DHT22;59335;46.652;21.272;2022-07-29T10:09:32;30.61;41.65
71514;DHT22;59335;46.652;21.272;2022-07-29T10:12:48;30.59;41.56
71514;DHT22;59335;46.652;21.272;2022-07-29T10:15:51;30.62;41.49
71514;DHT22;59335;46.652;21.272;2022-07-29T10:18:54;30.59;41.43
71514;DHT22;59335;46.652;21.272;2022-07-29T10:21:58;30.61;41.33
71514;DHT22;59335;46.652;21.272;2022-07-29T10:25:02;30.62;41.28
71514;DHT22;59335;46.652;21.272;2022-07-29T10:28:05;30.64;41.31
71514;DHT22;59335;46.652;21.272;2022-07-29T10:31:31;30.65;41.30
71514;DHT22;59335;46.652;21.272;2022-07-29T10:41:39;30.65;41.10
71514;DHT22;59335;46.652;21.272;2022-07-29T10:44:48;30.65;41.07
71514;DHT22;59335;46.652;21.272;2022-07-29T10:48:04;30.66;41.00
71514;DHT22;59335;46.652;21.272;2022-07-29T10:51:09;30.66;41.04
71514;DHT22;59335;46.652;21.272;2022-07-29T10:54:13;30.66;41.00
71514;DHT22;59335;46.652;21.272;2022-07-29T10:57:23;30.69;40.94
71514;DHT22;59335;46.652;21.272;2022-07-29T11:00:50;30.66;40.93
71514;DHT22;59335;46.652;21.272;2022-07-29T11:03:53;30.68;40.87
71514;DHT22;59335;46.652;21.272;2022-07-29T11:13:49;30.69;40.80
71514;DHT22;59335;46.652;21.272;2022-07-29T11:17:02;30.71;40.80
71514;DHT22;59335;46.652;21.272;2022-07-29T11:23:35;30.71;40.73
71514;DHT22;59335;46.652;21.272;2022-07-29T11:26:39;30.69;40.73
71514;DHT22;59335;46.652;21.272;2022-07-29T11:29:55;30.71;40.67
71514;DHT22;59335;46.652;21.272;2022-07-29T11:33:00;30.71;40.69
71514;DHT22;59335;46.652;21.272;2022-07-29T11:36:13;30.71;40.63
71514;DHT22;59335;46.652;21.272;2022-07-29T11:39:27;30.72;40.65
71514;DHT22;59335;46.652;21.272;2022-07-29T11:42:40;30.71;40.60
71514;DHT22;59335;46.652;21.272;2022-07-29T11:45:46;30.71;40.60
71514;DHT22;59335;46.652;21.272;2022-07-29T11:48:49;30.74;40.60
71514;DHT22;59335;46.652;21.272;2022-07-29T11:51:55;30.72;40.59
71514;DHT22;59335;46.652;21.272;2022-07-29T11:55:01;30.72;40.59
71514;DHT22;59335;46.652;21.272;2022-07-29T11:58:11;30.72;40.53
71514;DHT22;59335;46.652;21.272;2022-07-29T12:01:17;30.72;40.57
71514;DHT22;59335;46.652;21.272;2022-07-29T12:04:20;30.71;40.55
71514;DHT22;59335;46.652;21.272;2022-07-29T12:07:32;30.72;40.55
71514;DHT22;59335;46.652;21.272;2022-07-29T12:10:37;30.74;40.56
71514;DHT22;59335;46.652;21.272;2022-07-29T12:13:39;30.72;40.50
71514;DHT22;59335;46.652;21.272;2022-07-29T12:16:42;30.68;40.49
71514;DHT22;59335;46.652;21.272;2022-07-29T12:19:45;30.72;40.47
71514;DHT22;59335;46.652;21.272;2022-07-29T12:22:52;30.72;40.49
71514;DHT22;59335;46.652;21.272;2022-07-29T12:25:58;30.69;40.49
71514;DHT22;59335;46.652;21.272;2022-07-29T12:29:01;30.72;40.47
71514;DHT22;59335;46.652;21.272;2022-07-29T12:32:04;30.72;40.49
71514;DHT22;59335;46.652;21.272;2022-07-29T12:35:20;30.72;40.46
71514;DHT22;59335;46.652;21.272;2022-07-29T12:38:24;30.71;40.45
71514;DHT22;59335;46.652;21.272;2022-07-29T12:41:30;30.72;40.45
71514;DHT22;59335;46.652;21.272;2022-07-29T12:44:46;30.72;40.49
71514;DHT22;59335;46.652;21.272;2022-07-29T12:47:52;30.74;40.46
71514;DHT22;59335;46.652;21.272;2022-07-29T12:50:58;30.72;40.49
71514;DHT22;59335;46.652;21.272;2022-07-29T12:54:08;30.72;40.49
71514;DHT22;59335;46.652;21.272;2022-07-29T12:57:12;30.74;40.48
71514;DHT22;59335;46.652;21.272;2022-07-29T13:00:23;30.76;40.48
71514;DHT22;59335;46.652;21.272;2022-07-29T13:03:27;30.72;40.48
71514;DHT22;59335;46.652;21.272;2022-07-29T13:06:41;30.75;40.48
71514;DHT22;59335;46.652;21.272;2022-07-29T13:09:47;30.74;40.46
71514;DHT22;59335;46.652;21.272;2022-07-29T13:13:04;30.75;40.52
71514;DHT22;59335;46.652;21.272;2022-07-29T13:16:07;30.75;40.46
71514;DHT22;59335;46.652;21.272;2022-07-29T13:19:11;30.78;40.49
71514;DHT22;59335;46.652;21.272;2022-07-29T13:22:20;30.78;40.52
71514;DHT22;59335;46.652;21.272;2022-07-29T13:25:30;30.78;40.54
71514;DHT22;59335;46.652;21.272;2022-07-29T13:28:34;30.78;40.52
71514;DHT22;59335;46.652;21.272;2022-07-29T13:31:37;30.76;40.51
71514;DHT22;59335;46.652;21.272;2022-07-29T13:34:40;30.79;40.45
71514;DHT22;59335;46.652;21.272;2022-07-29T13:37:43;30.79;40.45
71514;DHT22;59335;46.652;21.272;2022-07-29T13:40:46;30.78;40.47
71514;DHT22;59335;46.652;21.272;2022-07-29T13:43:49;30.78;40.49
71514;DHT22;59335;46.652;21.272;2022-07-29T13:46:51;30.79;40.49
71514;DHT22;59335;46.652;21.272;2022-07-29T13:49:54;30.76;40.45
71514;DHT22;59335;46.652;21.272;2022-07-29T13:52:57;30.75;40.45
71514;DHT22;59335;46.652;21.272;2022-07-29T13:56:00;30.78;40.45
71514;DHT22;59335;46.652;21.272;2022-07-29T13:59:02;30.78;40.47
71514;DHT22;59335;46.652;21.272;2022-07-29T14:02:06;30.76;40.42
71514;DHT22;59335;46.652;21.272;2022-07-29T14:05:08;30.75;40.48
71514;DHT22;59335;46.652;21.272;2022-07-29T14:08:12;30.78;40.42
71514;DHT22;59335;46.652;21.272;2022-07-29T14:11:15;30.78;40.46
71514;DHT22;59335;46.652;21.272;2022-07-29T14:14:17;30.79;40.46
71514;DHT22;59335;46.652;21.272;2022-07-29T14:17:20;30.76;40.42
71514;DHT22;59335;46.652;21.272;2022-07-29T14:20:23;30.78;40.45
71514;DHT22;59335;46.652;21.272;2022-07-29T14:23:26;30.74;40.46
71514;DHT22;59335;46.652;21.272;2022-07-29T14:26:29;30.74;40.44
71514;DHT22;59335;46.652;21.272;2022-07-29T14:29:32;30.76;40.43
71514;DHT22;59335;46.652;21.272;2022-07-29T14:32:39;30.74;40.43
71514;DHT22;59335;46.652;21.272;2022-07-29T14:35:42;30.74;40.43
71514;DHT22;59335;46.652;21.272;2022-07-29T14:38:45;30.75;40.43
71514;DHT22;59335;46.652;21.272;2022-07-29T14:41:49;30.74;40.40
71514;DHT22;59335;46.652;21.272;2022-07-29T14:44:53;30.74;40.36
71514;DHT22;59335;46.652;21.272;2022-07-29T14:47:56;30.72;40.39
71514;DHT22;59335;46.652;21.272;2022-07-29T14:50:59;30.72;40.49
71514;DHT22;59335;46.652;21.272;2022-07-29T14:54:06;30.72;40.43
71514;DHT22;59335;46.652;21.272;2022-07-29T14:57:08;30.71;40.42
71514;DHT22;59335;46.652;21.272;2022-07-29T15:00:11;30.72;40.37
71514;DHT22;59335;46.652;21.272;2022-07-29T15:03:14;30.71;40.40
71514;DHT22;59335;46.652;21.272;2022-07-29T15:06:26;30.71;40.39
71514;DHT22;59335;46.652;21.272;2022-07-29T15:09:28;30.71;40.42
71514;DHT22;59335;46.652;21.272;2022-07-29T15:12:31;30.69;40.47
71514;DHT22;59335;46.652;21.272;2022-07-29T15:15:34;30.68;40.46
71514;DHT22;59335;46.652;21.272;2022-07-29T15:18:37;30.66;40.44
71514;DHT22;59335;46.652;21.272;2022-07-29T15:21:40;30.66;40.49
71514;DHT22;59335;46.652;21.272;2022-07-29T15:25:00;30.68;40.44
71514;DHT22;59335;46.652;21.272;2022-07-29T15:28:04;30.65;40.43
71514;DHT22;59335;46.652;21.272;2022-07-29T15:31:09;30.66;40.47
71514;DHT22;59335;46.652;21.272;2022-07-29T15:34:11;30.66;40.45
71514;DHT22;59335;46.652;21.272;2022-07-29T15:37:14;30.68;40.45
71514;DHT22;59335;46.652;21.272;2022-07-29T15:40:18;30.66;40.46
71514;DHT22;59335;46.652;21.272;2022-07-29T15:43:21;30.66;40.49
71514;DHT22;59335;46.652;21.272;2022-07-29T15:46:25;30.66;40.52
71514;DHT22;59335;46.652;21.272;2022-07-29T15:49:46;30.68;40.61
71514;DHT22;59335;46.652;21.272;2022-07-29T15:52:50;30.68;40.65
71514;DHT22;59335;46.652;21.272;2022-07-29T15:55:53;30.66;40.74
71514;DHT22;59335;46.652;21.272;2022-07-29T15:58:56;30.68;40.79
71514;DHT22;59335;46.652;21.272;2022-07-29T16:01:59;30.69;40.84
71514;DHT22;59335;46.652;21.272;2022-07-29T16:05:03;30.68;40.95
71514;DHT22;59335;46.652;21.272;2022-07-29T16:08:10;30.68;41.00
71514;DHT22;59335;46.652;21.272;2022-07-29T16:11:13;30.68;41.10
71514;DHT22;59335;46.652;21.272;2022-07-29T16:14:16;30.66;41.22
71514;DHT22;59335;46.652;21.272;2022-07-29T16:17:19;30.66;41.33
71514;DHT22;59335;46.652;21.272;2022-07-29T16:20:22;30.68;41.32
71514;DHT22;59335;46.652;21.272;2022-07-29T16:23:25;30.69;41.46
71514;DHT22;59335;46.652;21.272;2022-07-29T16:26:27;30.69;41.48
71514;DHT22;59335;46.652;21.272;2022-07-29T16:29:30;30.68;41.62
71514;DHT22;59335;46.652;21.272;2022-07-29T16:32:33;30.68;41.66
71514;DHT22;59335;46.652;21.272;2022-07-29T16:35:36;30.68;41.77
71514;DHT22;59335;46.652;21.272;2022-07-29T16:38:41;30.65;41.86
71514;DHT22;59335;46.652;21.272;2022-07-29T16:41:48;30.71;42.02
71514;DHT22;59335;46.652;21.272;2022-07-29T16:44:51;30.69;42.08
71514;DHT22;59335;46.652;21.272;2022-07-29T16:47:54;30.68;42.17
71514;DHT22;59335;46.652;21.272;2022-07-29T16:51:02;30.65;42.39
71514;DHT22;59335;46.652;21.272;2022-07-29T16:54:04;30.68;42.56
71514;DHT22;59335;46.652;21.272;2022-07-29T16:57:07;30.66;42.79
71514;DHT22;59335;46.652;21.272;2022-07-29T17:00:10;30.65;42.83
71514;DHT22;59335;46.652;21.272;2022-07-29T17:03:13;30.65;42.95
71514;DHT22;59335;46.652;21.272;2022-07-29T17:06:16;30.65;43.04
71514;DHT22;59335;46.652;21.272;2022-07-29T17:09:19;30.68;43.22
71514;DHT22;59335;46.652;21.272;2022-07-29T17:12:22;30.64;43.20
71514;DHT22;59335;46.652;21.272;2022-07-29T17:15:25;30.65;43.20
71514;DHT22;59335;46.652;21.272;2022-07-29T17:18:28;30.66;43.23
71514;DHT22;59335;46.652;21.272;2022-07-29T17:21:31;30.64;43.22
71514;DHT22;59335;46.652;21.272;2022-07-29T17:24:34;30.66;43.27
71514;DHT22;59335;46.652;21.272;2022-07-29T17:27:37;30.64;43.20
71514;DHT22;59335;46.652;21.272;2022-07-29T17:30:39;30.64;43.24
71514;DHT22;59335;46.652;21.272;2022-07-29T17:33:42;30.65;43.21
71514;DHT22;59335;46.652;21.272;2022-07-29T17:36:45;30.64;43.21
71514;DHT22;59335;46.652;21.272;2022-07-29T17:39:47;30.64;43.16
71514;DHT22;59335;46.652;21.272;2022-07-29T17:42:50;30.64;43.18
71514;DHT22;59335;46.652;21.272;2022-07-29T17:45:53;30.62;43.17
71514;DHT22;59335;46.652;21.272;2022-07-29T17:49:00;30.59;43.14
71514;DHT22;59335;46.652;21.272;2022-07-29T17:52:03;30.61;43.17
71514;DHT22;59335;46.652;21.272;2022-07-29T17:55:06;30.62;43.20
71514;DHT22;59335;46.652;21.272;2022-07-29T17:58:09;30.59;43.22
71514;DHT22;59335;46.652;21.272;2022-07-29T18:01:13;30.59;43.27
71514;DHT22;59335;46.652;21.272;2022-07-29T18:04:17;30.61;43.39
71514;DHT22;59335;46.652;21.272;2022-07-29T18:07:22;30.56;43.39
71514;DHT22;59335;46.652;21.272;2022-07-29T18:10:25;30.61;43.38
71514;DHT22;59335;46.652;21.272;2022-07-29T18:13:28;30.56;43.51
71514;DHT22;59335;46.652;21.272;2022-07-29T18:16:31;30.56;43.51
71514;DHT22;59335;46.652;21.272;2022-07-29T18:19:33;30.55;43.56
71514;DHT22;59335;46.652;21.272;2022-07-29T18:22:36;30.55;43.66
71514;DHT22;59335;46.652;21.272;2022-07-29T18:25:39;30.54;43.88
71514;DHT22;59335;46.652;21.272;2022-07-29T18:28:42;30.55;43.99
71514;DHT22;59335;46.652;21.272;2022-07-29T18:31:44;30.55;44.02
71514;DHT22;59335;46.652;21.272;2022-07-29T18:34:48;30.52;44.03
71514;DHT22;59335;46.652;21.272;2022-07-29T18:37:51;30.54;44.01
71514;DHT22;59335;46.652;21.272;2022-07-29T18:41:03;30.56;44.03
71514;DHT22;59335;46.652;21.272;2022-07-29T18:44:06;30.51;44.02
71514;DHT22;59335;46.652;21.272;2022-07-29T18:47:11;30.52;44.01
71514;DHT22;59335;46.652;21.272;2022-07-29T18:50:15;30.54;44.02
71514;DHT22;59335;46.652;21.272;2022-07-29T18:53:18;30.51;44.02
71514;DHT22;59335;46.652;21.272;2022-07-29T18:56:20;30.55;43.98
71514;DHT22;59335;46.652;21.272;2022-07-29T18:59:23;30.49;43.95
71514;DHT22;59335;46.652;21.272;2022-07-29T19:02:26;30.52;43.91
71514;DHT22;59335;46.652;21.272;2022-07-29T19:05:29;30.52;43.97
71514;DHT22;59335;46.652;21.272;2022-07-29T19:08:32;30.49;44.08
71514;DHT22;59335;46.652;21.272;2022-07-29T19:11:36;30.49;44.04
71514;DHT22;59335;46.652;21.272;2022-07-29T19:14:39;30.51;44.02
71514;DHT22;59335;46.652;21.272;2022-07-29T19:17:41;30.49;44.02
71514;DHT22;59335;46.652;21.272;2022-07-29T19:20:44;30.49;44.03
71514;DHT22;59335;46.652;21.272;2022-07-29T19:23:47;30.49;43.99
71514;DHT22;59335;46.652;21.272;2022-07-29T19:27:08;30.49;43.95
71514;DHT22;59335;46.652;21.272;2022-07-29T19:30:11;30.48;43.99
71514;DHT22;59335;46.652;21.272;2022-07-29T19:33:14;30.47;43.99
71514;DHT22;59335;46.652;21.272;2022-07-29T19:36:18;30.48;44.00
71514;DHT22;59335;46.652;21.272;2022-07-29T19:39:21;30.49;44.02
71514;DHT22;59335;46.652;21.272;2022-07-29T19:42:36;30.49;43.98
71514;DHT22;59335;46.652;21.272;2022-07-29T19:45:39;30.45;43.99
71514;DHT22;59335;46.652;21.272;2022-07-29T19:48:42;30.47;43.99